sensor_id;sensor_type;location;lat;lon;timestamp;temperature;humidity
18541;DHT22;9400;50.924;5.328;2022-12-07T00:01:04;5.20;99.90
18541;DHT22;9400;50.924;5.328;2022-12-07T00:03:33;5.20;99.90
18541;DHT22;9400;50.924;5.328;2022-12-07T00:06:04;5.10;99.90
18541;DHT22;9400;50.924;5.328;2022-12-07T00:08:33;5.10;99.90
18541;DHT22;9400;50.924;5.328;2022-12-07T00:11:01;5.10;99.90
18541;DHT22;9400;50.924;5.328;2022-12-07T00:13:30;5.20;99.90
18541;DHT22;9400;50.924;5.328;2022-12-07T00:16:01;5.20;99.90
18541;DHT22;9400;50.924;5.328;2022-12-07T00:18:29;5.30;99.90
18541;DHT22;9400;50.924;5.328;2022-12-07T00:21:01;5.30;99.90
18541;DHT22;9400;50.924;5.328;2022-12-07T00:23:29;5.30;99.90
18541;DHT22;9400;50.924;5.328;2022-12-07T00:26:03;5.30;99.90
18541;DHT22;9400;50.924;5.328;2022-12-07T00:28:31;5.20;99.90
18541;DHT22;9400;50.924;5.328;2022-12-07T00:31:05;5.10;99.90
18541;DHT22;9400;50.924;5.328;2022-12-07T00:33:33;5.10;99.90
18541;DHT22;9400;50.924;5.328;2022-12-07T00:36:06;5.00;99.90
18541;DHT22;9400;50.924;5.328;2022-12-07T00:38:35;5.00;99.90
18541;DHT22;9400;50.924;5.328;2022-12-07T00:41:06;5.00;99.90
18541;DHT22;9400;50.924;5.328;2022-12-07T00:43:34;5.00;99.90
18541;DHT22;9400;50.924;5.328;2022-12-07T00:46:03;5.00;99.90
18541;DHT22;9400;50.924;5.328;2022-12-07T00:48:31;5.00;99.90
18541;DHT22;9400;50.924;5.328;2022-12-07T00:51:00;5.10;99.90
18541;DHT22;9400;50.924;5.328;2022-12-07T00:53:30;5.20;99.90
18541;DHT22;9400;50.924;5.328;2022-12-07T00:55:58;5.10;99.90
18541;DHT22;9400;50.924;5.328;2022-12-07T00:58:25;5.20;99.90
18541;DHT22;9400;50.924;5.328;2022-12-07T01:00:53;5.20;99.90
18541;DHT22;9400;50.924;5.328;2022-12-07T01:03:20;5.20;99.90
18541;DHT22;9400;50.924;5.328;2022-12-07T01:05:51;5.20;99.90
18541;DHT22;9400;50.924;5.328;2022-12-07T01:08:20;5.20;99.90
18541;DHT22;9400;50.924;5.328;2022-12-07T01:10:58;5.20;99.90
18541;DHT22;9400;50.924;5.328;2022-12-07T01:13:26;5.20;99.90
18541;DHT22;9400;50.924;5.328;2022-12-07T01:15:56;5.20;99.90
18541;DHT22;9400;50.924;5.328;2022-12-07T01:18:26;5.20;99.90
18541;DHT22;9400;50.924;5.328;2022-12-07T01:21:05;5.20;99.90
18541;DHT22;9400;50.924;5.328;2022-12-07T01:23:33;5.30;99.90
18541;DHT22;9400;50.924;5.328;2022-12-07T01:26:04;5.30;99.90
18541;DHT22;9400;50.924;5.328;2022-12-07T01:28:32;5.40;99.90
18541;DHT22;9400;50.924;5.328;2022-12-07T01:31:03;5.40;99.90
18541;DHT22;9400;50.924;5.328;2022-12-07T01:33:33;5.40;99.90
18541;DHT22;9400;50.924;5.328;2022-12-07T01:36:02;5.40;99.90
18541;DHT22;9400;50.924;5.328;2022-12-07T01:38:30;5.40;99.90
18541;DHT22;9400;50.924;5.328;2022-12-07T01:40:58;5.40;99.90
18541;DHT22;9400;50.924;5.328;2022-12-07T01:43:33;5.40;99.90
18541;DHT22;9400;50.924;5.328;2022-12-07T01:46:01;5.40;99.90
18541;DHT22;9400;50.924;5.328;2022-12-07T01:48:33;5.40;99.90
18541;DHT22;9400;50.924;5.328;2022-12-07T01:51:04;5.40;99.90
18541;DHT22;9400;50.924;5.328;2022-12-07T01:53:34;5.40;99.90
18541;DHT22;9400;50.924;5.328;2022-12-07T01:56:03;5.40;99.90
18541;DHT22;9400;50.924;5.328;2022-12-07T01:58:33;5.30;99.90
18541;DHT22;9400;50.924;5.328;2022-12-07T02:01:01;5.30;99.90
18541;DHT22;9400;50.924;5.328;2022-12-07T02:03:32;5.30;99.90
18541;DHT22;9400;50.924;5.328;2022-12-07T02:06:01;5.30;99.90
18541;DHT22;9400;50.924;5.328;2022-12-07T02:08:28;5.20;99.90
18541;DHT22;9400;50.924;5.328;2022-12-07T02:10:56;5.20;99.90
18541;DHT22;9400;50.924;5.328;2022-12-07T02:13:26;5.20;99.90
18541;DHT22;9400;50.924;5.328;2022-12-07T02:18:53;5.20;99.90
18541;DHT22;9400;50.924;5.328;2022-12-07T02:21:31;5.10;99.90
18541;DHT22;9400;50.924;5.328;2022-12-07T02:24:24;5.10;99.90
18541;DHT22;9400;50.924;5.328;2022-12-07T02:27:13;5.20;99.90
18541;DHT22;9400;50.924;5.328;2022-12-07T02:29:53;5.20;99.90
18541;DHT22;9400;50.924;5.328;2022-12-07T02:32:27;5.20;99.90
18541;DHT22;9400;50.924;5.328;2022-12-07T02:35:02;5.30;99.90
18541;DHT22;9400;50.924;5.328;2022-12-07T02:37:37;5.30;99.90
18541;DHT22;9400;50.924;5.328;2022-12-07T02:40:10;5.30;99.90
18541;DHT22;9400;50.924;5.328;2022-12-07T02:42:44;5.20;99.90
18541;DHT22;9400;50.924;5.328;2022-12-07T02:45:15;5.20;99.90
18541;DHT22;9400;50.924;5.328;2022-12-07T02:47:46;5.20;99.90
18541;DHT22;9400;50.924;5.328;2022-12-07T02:50:18;5.20;99.90
18541;DHT22;9400;50.924;5.328;2022-12-07T02:52:52;5.20;99.90
18541;DHT22;9400;50.924;5.328;2022-12-07T02:55:23;5.20;99.90
18541;DHT22;9400;50.924;5.328;2022-12-07T02:58:12;5.20;99.90
18541;DHT22;9400;50.924;5.328;2022-12-07T03:00:51;5.20;99.90
18541;DHT22;9400;50.924;5.328;2022-12-07T03:03:20;5.20;99.90
18541;DHT22;9400;50.924;5.328;2022-12-07T03:06:10;5.20;99.90
18541;DHT22;9400;50.924;5.328;2022-12-07T03:08:47;5.20;99.90
18541;DHT22;9400;50.924;5.328;2022-12-07T03:11:20;5.20;99.90
18541;DHT22;9400;50.924;5.328;2022-12-07T03:13:56;5.20;99.90
18541;DHT22;9400;50.924;5.328;2022-12-07T03:16:27;5.20;99.90
18541;DHT22;9400;50.924;5.328;2022-12-07T03:18:58;5.10;99.90
18541;DHT22;9400;50.924;5.328;2022-12-07T03:21:29;5.10;99.90
18541;DHT22;9400;50.924;5.328;2022-12-07T03:24:03;5.20;99.90
18541;DHT22;9400;50.924;5.328;2022-12-07T03:26:34;5.10;99.90
18541;DHT22;9400;50.924;5.328;2022-12-07T03:29:07;5.10;99.90
18541;DHT22;9400;50.924;5.328;2022-12-07T03:31:39;5.10;99.90
18541;DHT22;9400;50.924;5.328;2022-12-07T03:34:13;5.10;99.90
18541;DHT22;9400;50.924;5.328;2022-12-07T03:36:46;5.00;99.90
18541;DHT22;9400;50.924;5.328;2022-12-07T03:39:22;5.00;99.90
18541;DHT22;9400;50.924;5.328;2022-12-07T03:41:52;5.10;99.90
18541;DHT22;9400;50.924;5.328;2022-12-07T03:44:20;5.10;99.90
18541;DHT22;9400;50.924;5.328;2022-12-07T03:46:54;5.10;99.90
18541;DHT22;9400;50.924;5.328;2022-12-07T03:49:26;5.20;99.90
18541;DHT22;9400;50.924;5.328;2022-12-07T03:51:59;5.20;99.90
18541;DHT22;9400;50.924;5.328;2022-12-07T03:54:33;5.20;99.90
18541;DHT22;9400;50.924;5.328;2022-12-07T03:57:03;5.20;99.90
18541;DHT22;9400;50.924;5.328;2022-12-07T03:59:32;5.20;99.90
18541;DHT22;9400;50.924;5.328;2022-12-07T04:02:03;5.20;99.90
18541;DHT22;9400;50.924;5.328;2022-12-07T04:04:32;5.20;99.90
18541;DHT22;9400;50.924;5.328;2022-12-07T04:07:00;5.20;99.90
18541;DHT22;9400;50.924;5.328;2022-12-07T04:09:30;5.10;99.90
18541;DHT22;9400;50.924;5.328;2022-12-07T04:11:57;5.10;99.90
18541;DHT22;9400;50.924;5.328;2022-12-07T04:14:25;5.10;99.90
18541;DHT22;9400;50.924;5.328;2022-12-07T04:16:55;4.90;99.90
18541;DHT22;9400;50.924;5.328;2022-12-07T04:19:25;4.90;99.90
18541;DHT22;9400;50.924;5.328;2022-12-07T04:21:53;4.80;99.90
18541;DHT22;9400;50.924;5.328;2022-12-07T04:24:21;4.80;99.90
18541;DHT22;9400;50.924;5.328;2022-12-07T04:26:51;4.80;99.90
18541;DHT22;9400;50.924;5.328;2022-12-07T04:29:19;4.70;99.90
18541;DHT22;9400;50.924;5.328;2022-12-07T04:31:46;4.60;99.90
18541;DHT22;9400;50.924;5.328;2022-12-07T04:34:15;4.60;99.90
18541;DHT22;9400;50.924;5.328;2022-12-07T04:36:45;4.60;99.90
18541;DHT22;9400;50.924;5.328;2022-12-07T04:39:20;4.50;99.90
18541;DHT22;9400;50.924;5.328;2022-12-07T04:41:49;4.50;99.90
18541;DHT22;9400;50.924;5.328;2022-12-07T04:44:17;4.50;99.90
18541;DHT22;9400;50.924;5.328;2022-12-07T04:46:46;4.50;99.90
18541;DHT22;9400;50.924;5.328;2022-12-07T04:49:14;4.50;99.90
18541;DHT22;9400;50.924;5.328;2022-12-07T04:51:42;4.60;99.90
18541;DHT22;9400;50.924;5.328;2022-12-07T04:54:11;4.70;99.90
18541;DHT22;9400;50.924;5.328;2022-12-07T04:56:39;4.70;99.90
18541;DHT22;9400;50.924;5.328;2022-12-07T04:59:09;4.70;99.90
18541;DHT22;9400;50.924;5.328;2022-12-07T05:01:37;4.80;99.90
18541;DHT22;9400;50.924;5.328;2022-12-07T05:04:05;4.90;99.90
18541;DHT22;9400;50.924;5.328;2022-12-07T05:06:32;4.80;99.90
18541;DHT22;9400;50.924;5.328;2022-12-07T05:09:00;4.80;99.90
18541;DHT22;9400;50.924;5.328;2022-12-07T05:11:28;4.60;99.90
18541;DHT22;9400;50.924;5.328;2022-12-07T05:14:15;4.50;99.90
18541;DHT22;9400;50.924;5.328;2022-12-07T05:16:44;4.50;99.90
18541;DHT22;9400;50.924;5.328;2022-12-07T05:19:13;4.40;99.90
18541;DHT22;9400;50.924;5.328;2022-12-07T05:21:40;4.40;99.90
18541;DHT22;9400;50.924;5.328;2022-12-07T05:24:11;4.30;99.90
18541;DHT22;9400;50.924;5.328;2022-12-07T05:26:40;4.30;99.90
18541;DHT22;9400;50.924;5.328;2022-12-07T05:29:10;4.30;99.90
18541;DHT22;9400;50.924;5.328;2022-12-07T05:31:41;4.20;99.90
18541;DHT22;9400;50.924;5.328;2022-12-07T05:34:08;4.30;99.90
18541;DHT22;9400;50.924;5.328;2022-12-07T05:36:36;4.30;99.90
18541;DHT22;9400;50.924;5.328;2022-12-07T05:39:04;4.30;99.90
18541;DHT22;9400;50.924;5.328;2022-12-07T05:41:33;4.30;99.90
18541;DHT22;9400;50.924;5.328;2022-12-07T05:44:18;4.30;99.90
18541;DHT22;9400;50.924;5.328;2022-12-07T05:46:47;4.30;99.90
18541;DHT22;9400;50.924;5.328;2022-12-07T05:49:14;4.30;99.90
18541;DHT22;9400;50.924;5.328;2022-12-07T05:51:42;4.40;99.90
18541;DHT22;9400;50.924;5.328;2022-12-07T05:54:11;4.50;99.90
18541;DHT22;9400;50.924;5.328;2022-12-07T05:56:39;4.50;99.90
18541;DHT22;9400;50.924;5.328;2022-12-07T05:59:07;4.50;99.90
18541;DHT22;9400;50.924;5.328;2022-12-07T06:01:55;4.50;99.90
18541;DHT22;9400;50.924;5.328;2022-12-07T06:04:24;4.40;99.90
18541;DHT22;9400;50.924;5.328;2022-12-07T06:06:53;4.40;99.90
18541;DHT22;9400;50.924;5.328;2022-12-07T06:09:21;4.50;99.90
18541;DHT22;9400;50.924;5.328;2022-12-07T06:11:49;4.50;99.90
18541;DHT22;9400;50.924;5.328;2022-12-07T06:14:34;4.40;99.90
18541;DHT22;9400;50.924;5.328;2022-12-07T06:17:04;4.50;99.90
18541;DHT22;9400;50.924;5.328;2022-12-07T06:19:32;4.50;99.90
18541;DHT22;9400;50.924;5.328;2022-12-07T06:22:00;4.40;99.90
18541;DHT22;9400;50.924;5.328;2022-12-07T06:24:28;4.50;99.90
18541;DHT22;9400;50.924;5.328;2022-12-07T06:26:56;4.40;99.90
18541;DHT22;9400;50.924;5.328;2022-12-07T06:29:24;4.50;99.90
18541;DHT22;9400;50.924;5.328;2022-12-07T06:31:53;4.60;99.90
18541;DHT22;9400;50.924;5.328;2022-12-07T06:34:23;4.70;99.90
18541;DHT22;9400;50.924;5.328;2022-12-07T06:36:53;4.70;99.90
18541;DHT22;9400;50.924;5.328;2022-12-07T06:39:24;4.80;99.90
18541;DHT22;9400;50.924;5.328;2022-12-07T06:41:52;4.80;99.90
18541;DHT22;9400;50.924;5.328;2022-12-07T06:44:20;4.80;99.90
18541;DHT22;9400;50.924;5.328;2022-12-07T06:46:49;4.70;99.90
18541;DHT22;9400;50.924;5.328;2022-12-07T06:49:17;4.70;99.90
18541;DHT22;9400;50.924;5.328;2022-12-07T06:51:48;4.60;99.90
18541;DHT22;9400;50.924;5.328;2022-12-07T06:54:16;4.60;99.90
18541;DHT22;9400;50.924;5.328;2022-12-07T06:56:43;4.60;99.90
18541;DHT22;9400;50.924;5.328;2022-12-07T06:59:11;4.70;99.90
18541;DHT22;9400;50.924;5.328;2022-12-07T07:01:38;4.70;99.90
18541;DHT22;9400;50.924;5.328;2022-12-07T07:04:06;4.70;99.90
18541;DHT22;9400;50.924;5.328;2022-12-07T07:06:34;4.70;99.90
18541;DHT22;9400;50.924;5.328;2022-12-07T07:09:03;4.70;99.90
18541;DHT22;9400;50.924;5.328;2022-12-07T07:11:31;4.60;99.90
18541;DHT22;9400;50.924;5.328;2022-12-07T07:13:59;4.60;99.90
18541;DHT22;9400;50.924;5.328;2022-12-07T07:16:28;4.60;99.90
18541;DHT22;9400;50.924;5.328;2022-12-07T07:18:56;4.60;99.90
18541;DHT22;9400;50.924;5.328;2022-12-07T07:21:23;4.50;99.90
18541;DHT22;9400;50.924;5.328;2022-12-07T07:23:51;4.50;99.90
18541;DHT22;9400;50.924;5.328;2022-12-07T07:26:20;4.40;99.90
18541;DHT22;9400;50.924;5.328;2022-12-07T07:28:48;4.30;99.90
18541;DHT22;9400;50.924;5.328;2022-12-07T07:31:16;4.30;99.90
18541;DHT22;9400;50.924;5.328;2022-12-07T07:33:45;4.30;99.90
18541;DHT22;9400;50.924;5.328;2022-12-07T07:36:13;4.20;99.90
18541;DHT22;9400;50.924;5.328;2022-12-07T07:38:41;4.20;99.90
18541;DHT22;9400;50.924;5.328;2022-12-07T07:41:11;4.20;99.90
18541;DHT22;9400;50.924;5.328;2022-12-07T07:43:42;4.20;99.90
18541;DHT22;9400;50.924;5.328;2022-12-07T07:46:10;4.10;99.90
18541;DHT22;9400;50.924;5.328;2022-12-07T07:48:38;4.10;99.90
18541;DHT22;9400;50.924;5.328;2022-12-07T07:51:06;4.00;99.90
18541;DHT22;9400;50.924;5.328;2022-12-07T07:53:34;3.90;99.90
18541;DHT22;9400;50.924;5.328;2022-12-07T07:56:02;3.90;99.90
18541;DHT22;9400;50.924;5.328;2022-12-07T07:58:32;4.00;99.90
18541;DHT22;9400;50.924;5.328;2022-12-07T08:01:05;3.90;99.90
18541;DHT22;9400;50.924;5.328;2022-12-07T08:03:33;3.90;99.90
18541;DHT22;9400;50.924;5.328;2022-12-07T08:06:02;3.90;99.90
18541;DHT22;9400;50.924;5.328;2022-12-07T08:08:30;3.90;99.90
18541;DHT22;9400;50.924;5.328;2022-12-07T08:10:57;3.90;99.90
18541;DHT22;9400;50.924;5.328;2022-12-07T08:13:27;3.80;99.90
18541;DHT22;9400;50.924;5.328;2022-12-07T08:15:54;3.80;99.90
18541;DHT22;9400;50.924;5.328;2022-12-07T08:18:24;3.80;99.90
18541;DHT22;9400;50.924;5.328;2022-12-07T08:20:51;3.90;99.90
18541;DHT22;9400;50.924;5.328;2022-12-07T08:23:19;3.90;99.90
18541;DHT22;9400;50.924;5.328;2022-12-07T08:25:46;3.90;99.90
18541;DHT22;9400;50.924;5.328;2022-12-07T08:28:14;4.00;99.90
18541;DHT22;9400;50.924;5.328;2022-12-07T08:30:42;4.00;99.90
18541;DHT22;9400;50.924;5.328;2022-12-07T08:33:10;4.00;99.90
18541;DHT22;9400;50.924;5.328;2022-12-07T08:35:52;4.00;99.90
18541;DHT22;9400;50.924;5.328;2022-12-07T08:38:20;4.10;99.90
18541;DHT22;9400;50.924;5.328;2022-12-07T08:40:54;4.00;99.90
18541;DHT22;9400;50.924;5.328;2022-12-07T08:43:22;4.20;99.90
18541;DHT22;9400;50.924;5.328;2022-12-07T08:45:53;4.40;99.90
18541;DHT22;9400;50.924;5.328;2022-12-07T08:48:22;4.40;99.90
18541;DHT22;9400;50.924;5.328;2022-12-07T08:50:52;4.50;99.90
18541;DHT22;9400;50.924;5.328;2022-12-07T08:53:20;4.70;99.90
18541;DHT22;9400;50.924;5.328;2022-12-07T08:55:47;4.80;99.90
18541;DHT22;9400;50.924;5.328;2022-12-07T08:58:16;4.90;99.90
18541;DHT22;9400;50.924;5.328;2022-12-07T09:00:43;5.00;99.90
18541;DHT22;9400;50.924;5.328;2022-12-07T09:03:11;4.90;99.90
18541;DHT22;9400;50.924;5.328;2022-12-07T09:05:38;4.80;99.90
18541;DHT22;9400;50.924;5.328;2022-12-07T09:08:08;4.80;99.90
18541;DHT22;9400;50.924;5.328;2022-12-07T09:10:39;4.90;99.90
18541;DHT22;9400;50.924;5.328;2022-12-07T09:13:06;5.00;99.90
18541;DHT22;9400;50.924;5.328;2022-12-07T09:15:34;5.20;99.90
18541;DHT22;9400;50.924;5.328;2022-12-07T09:18:05;5.20;99.90
18541;DHT22;9400;50.924;5.328;2022-12-07T09:20:33;5.40;99.90
18541;DHT22;9400;50.924;5.328;2022-12-07T09:23:01;5.40;99.90
18541;DHT22;9400;50.924;5.328;2022-12-07T09:25:29;5.50;99.90
18541;DHT22;9400;50.924;5.328;2022-12-07T09:27:57;5.50;99.90
18541;DHT22;9400;50.924;5.328;2022-12-07T09:30:26;5.50;99.90
18541;DHT22;9400;50.924;5.328;2022-12-07T09:32:57;5.60;99.90
18541;DHT22;9400;50.924;5.328;2022-12-07T09:35:25;5.60;99.90
18541;DHT22;9400;50.924;5.328;2022-12-07T09:37:53;5.50;99.90
18541;DHT22;9400;50.924;5.328;2022-12-07T09:40:22;5.60;99.90
18541;DHT22;9400;50.924;5.328;2022-12-07T09:42:53;5.60;99.90
18541;DHT22;9400;50.924;5.328;2022-12-07T09:45:23;5.70;99.90
18541;DHT22;9400;50.924;5.328;2022-12-07T09:47:51;5.70;99.90
18541;DHT22;9400;50.924;5.328;2022-12-07T09:50:21;5.70;99.90
18541;DHT22;9400;50.924;5.328;2022-12-07T09:52:50;5.70;99.90
18541;DHT22;9400;50.924;5.328;2022-12-07T09:55:22;5.80;99.90
18541;DHT22;9400;50.924;5.328;2022-12-07T09:57:52;5.80;99.90
18541;DHT22;9400;50.924;5.328;2022-12-07T10:00:22;5.80;99.90
18541;DHT22;9400;50.924;5.328;2022-12-07T10:02:55;5.80;99.90
18541;DHT22;9400;50.924;5.328;2022-12-07T10:05:27;5.70;99.90
18541;DHT22;9400;50.924;5.328;2022-12-07T10:07:56;5.60;99.90
18541;DHT22;9400;50.924;5.328;2022-12-07T10:10:26;5.70;99.90
18541;DHT22;9400;50.924;5.328;2022-12-07T10:12:58;5.80;99.90
18541;DHT22;9400;50.924;5.328;2022-12-07T10:15:44;6.00;99.90
18541;DHT22;9400;50.924;5.328;2022-12-07T10:18:26;6.20;99.90
18541;DHT22;9400;50.924;5.328;2022-12-07T10:21:03;6.50;99.90
18541;DHT22;9400;50.924;5.328;2022-12-07T10:23:31;6.70;99.90
18541;DHT22;9400;50.924;5.328;2022-12-07T10:25:58;6.60;99.90
18541;DHT22;9400;50.924;5.328;2022-12-07T10:28:35;6.70;99.90
18541;DHT22;9400;50.924;5.328;2022-12-07T10:31:15;6.70;99.90
18541;DHT22;9400;50.924;5.328;2022-12-07T10:33:50;6.60;99.90
18541;DHT22;9400;50.924;5.328;2022-12-07T10:36:22;6.70;99.90
18541;DHT22;9400;50.924;5.328;2022-12-07T10:38:52;6.80;99.90
18541;DHT22;9400;50.924;5.328;2022-12-07T10:41:20;6.70;99.90
18541;DHT22;9400;50.924;5.328;2022-12-07T10:43:52;6.70;99.90
18541;DHT22;9400;50.924;5.328;2022-12-07T10:52:32;6.60;99.90
18541;DHT22;9400;50.924;5.328;2022-12-07T10:55:16;6.70;99.90
18541;DHT22;9400;50.924;5.328;2022-12-07T10:58:00;6.70;99.90
18541;DHT22;9400;50.924;5.328;2022-12-07T11:00:37;6.60;99.90
18541;DHT22;9400;50.924;5.328;2022-12-07T11:03:28;6.70;99.90
18541;DHT22;9400;50.924;5.328;2022-12-07T11:06:10;6.80;99.90
18541;DHT22;9400;50.924;5.328;2022-12-07T11:08:49;6.80;99.90
18541;DHT22;9400;50.924;5.328;2022-12-07T11:11:25;7.10;99.90
18541;DHT22;9400;50.924;5.328;2022-12-07T11:14:00;7.20;99.90
18541;DHT22;9400;50.924;5.328;2022-12-07T11:16:38;7.20;99.90
18541;DHT22;9400;50.924;5.328;2022-12-07T11:19:27;7.20;99.90
18541;DHT22;9400;50.924;5.328;2022-12-07T11:21:57;7.20;99.90
18541;DHT22;9400;50.924;5.328;2022-12-07T11:24:35;7.20;99.90
18541;DHT22;9400;50.924;5.328;2022-12-07T11:27:15;7.10;99.90
18541;DHT22;9400;50.924;5.328;2022-12-07T11:30:03;7.30;99.90
18541;DHT22;9400;50.924;5.328;2022-12-07T11:32:53;7.40;99.90
18541;DHT22;9400;50.924;5.328;2022-12-07T11:35:35;7.70;99.90
18541;DHT22;9400;50.924;5.328;2022-12-07T11:38:12;7.70;99.90
18541;DHT22;9400;50.924;5.328;2022-12-07T11:40:45;7.60;99.90
18541;DHT22;9400;50.924;5.328;2022-12-07T11:43:21;7.70;99.90
18541;DHT22;9400;50.924;5.328;2022-12-07T11:45:54;7.80;99.90
18541;DHT22;9400;50.924;5.328;2022-12-07T11:48:32;7.70;99.90
18541;DHT22;9400;50.924;5.328;2022-12-07T11:51:02;7.70;99.90
18541;DHT22;9400;50.924;5.328;2022-12-07T11:53:36;7.80;99.90
18541;DHT22;9400;50.924;5.328;2022-12-07T11:56:13;7.80;99.90
18541;DHT22;9400;50.924;5.328;2022-12-07T11:58:53;7.70;99.90
18541;DHT22;9400;50.924;5.328;2022-12-07T12:01:35;7.60;99.90
18541;DHT22;9400;50.924;5.328;2022-12-07T12:04:18;7.60;99.90
18541;DHT22;9400;50.924;5.328;2022-12-07T12:06:49;7.60;99.90
18541;DHT22;9400;50.924;5.328;2022-12-07T12:09:19;7.60;99.90
18541;DHT22;9400;50.924;5.328;2022-12-07T12:12:21;7.50;99.90
18541;DHT22;9400;50.924;5.328;2022-12-07T12:15:06;7.60;99.90
18541;DHT22;9400;50.924;5.328;2022-12-07T12:17:50;7.60;99.90
18541;DHT22;9400;50.924;5.328;2022-12-07T12:20:25;7.50;99.90
18541;DHT22;9400;50.924;5.328;2022-12-07T12:22:58;7.60;99.90
18541;DHT22;9400;50.924;5.328;2022-12-07T12:25:29;7.70;99.90
18541;DHT22;9400;50.924;5.328;2022-12-07T12:27:59;7.80;99.90
18541;DHT22;9400;50.924;5.328;2022-12-07T12:30:35;7.90;99.90
18541;DHT22;9400;50.924;5.328;2022-12-07T12:33:06;7.80;99.90
18541;DHT22;9400;50.924;5.328;2022-12-07T12:35:35;7.60;99.90
18541;DHT22;9400;50.924;5.328;2022-12-07T12:45:04;7.80;99.90
18541;DHT22;9400;50.924;5.328;2022-12-07T12:47:54;7.90;99.90
18541;DHT22;9400;50.924;5.328;2022-12-07T12:50:25;7.90;99.90
18541;DHT22;9400;50.924;5.328;2022-12-07T12:53:12;7.90;99.90
18541;DHT22;9400;50.924;5.328;2022-12-07T12:58:38;8.30;99.90
18541;DHT22;9400;50.924;5.328;2022-12-07T13:04:50;8.40;99.90
18541;DHT22;9400;50.924;5.328;2022-12-07T13:07:49;8.30;99.90
18541;DHT22;9400;50.924;5.328;2022-12-07T13:10:39;8.20;99.90
18541;DHT22;9400;50.924;5.328;2022-12-07T13:13:30;8.00;99.90
18541;DHT22;9400;50.924;5.328;2022-12-07T13:18:59;7.80;99.90
18541;DHT22;9400;50.924;5.328;2022-12-07T13:21:47;7.70;99.90
18541;DHT22;9400;50.924;5.328;2022-12-07T13:24:14;7.50;99.90
18541;DHT22;9400;50.924;5.328;2022-12-07T13:26:43;7.50;99.90
18541;DHT22;9400;50.924;5.328;2022-12-07T13:29:13;7.50;99.90
18541;DHT22;9400;50.924;5.328;2022-12-07T13:31:43;7.50;99.90
18541;DHT22;9400;50.924;5.328;2022-12-07T13:34:32;7.50;99.90
18541;DHT22;9400;50.924;5.328;2022-12-07T13:37:09;7.50;99.90
18541;DHT22;9400;50.924;5.328;2022-12-07T13:39:45;7.60;99.90
18541;DHT22;9400;50.924;5.328;2022-12-07T13:42:21;7.60;99.90
18541;DHT22;9400;50.924;5.328;2022-12-07T13:44:49;7.70;99.90
18541;DHT22;9400;50.924;5.328;2022-12-07T13:47:30;8.60;99.90
18541;DHT22;9400;50.924;5.328;2022-12-07T13:49:58;9.60;99.90
18541;DHT22;9400;50.924;5.328;2022-12-07T13:52:27;11.40;99.90
18541;DHT22;9400;50.924;5.328;2022-12-07T13:54:57;12.00;99.90
18541;DHT22;9400;50.924;5.328;2022-12-07T13:57:26;10.50;99.90
18541;DHT22;9400;50.924;5.328;2022-12-07T13:59:54;9.30;99.90
18541;DHT22;9400;50.924;5.328;2022-12-07T14:02:25;8.80;99.90
18541;DHT22;9400;50.924;5.328;2022-12-07T14:05:09;8.40;99.90
18541;DHT22;9400;50.924;5.328;2022-12-07T14:07:52;8.20;99.90
18541;DHT22;9400;50.924;5.328;2022-12-07T14:10:26;8.00;99.90
18541;DHT22;9400;50.924;5.328;2022-12-07T14:12:54;7.80;99.90
18541;DHT22;9400;50.924;5.328;2022-12-07T14:15:25;7.80;99.90
18541;DHT22;9400;50.924;5.328;2022-12-07T14:17:55;7.80;99.90
18541;DHT22;9400;50.924;5.328;2022-12-07T14:20:33;7.80;99.90
18541;DHT22;9400;50.924;5.328;2022-12-07T14:23:02;7.80;99.90
18541;DHT22;9400;50.924;5.328;2022-12-07T14:25:45;7.70;99.90
18541;DHT22;9400;50.924;5.328;2022-12-07T14:28:25;7.60;99.90
18541;DHT22;9400;50.924;5.328;2022-12-07T14:30:53;7.50;99.90
18541;DHT22;9400;50.924;5.328;2022-12-07T14:33:21;7.50;99.90
18541;DHT22;9400;50.924;5.328;2022-12-07T14:35:50;7.50;99.90
18541;DHT22;9400;50.924;5.328;2022-12-07T14:38:20;7.40;99.90
18541;DHT22;9400;50.924;5.328;2022-12-07T14:40:50;7.40;99.90
18541;DHT22;9400;50.924;5.328;2022-12-07T14:43:19;7.50;99.90
18541;DHT22;9400;50.924;5.328;2022-12-07T14:45:47;7.40;99.90
18541;DHT22;9400;50.924;5.328;2022-12-07T14:48:16;7.30;99.90
18541;DHT22;9400;50.924;5.328;2022-12-07T14:50:46;7.20;99.90
18541;DHT22;9400;50.924;5.328;2022-12-07T14:53:21;7.20;99.90
18541;DHT22;9400;50.924;5.328;2022-12-07T14:55:51;7.20;99.90
18541;DHT22;9400;50.924;5.328;2022-12-07T14:58:22;7.10;99.90
18541;DHT22;9400;50.924;5.328;2022-12-07T15:00:49;7.10;99.90
18541;DHT22;9400;50.924;5.328;2022-12-07T15:03:17;7.10;99.90
18541;DHT22;9400;50.924;5.328;2022-12-07T15:05:45;7.10;99.90
18541;DHT22;9400;50.924;5.328;2022-12-07T15:08:12;7.10;99.90
18541;DHT22;9400;50.924;5.328;2022-12-07T15:10:43;7.00;99.90
18541;DHT22;9400;50.924;5.328;2022-12-07T15:13:11;6.90;99.90
18541;DHT22;9400;50.924;5.328;2022-12-07T15:15:55;6.90;99.90
18541;DHT22;9400;50.924;5.328;2022-12-07T15:18:24;6.90;99.90
18541;DHT22;9400;50.924;5.328;2022-12-07T15:20:51;6.80;99.90
18541;DHT22;9400;50.924;5.328;2022-12-07T15:23:19;6.80;99.90
18541;DHT22;9400;50.924;5.328;2022-12-07T15:25:49;6.80;99.90
18541;DHT22;9400;50.924;5.328;2022-12-07T15:28:17;6.80;99.90
18541;DHT22;9400;50.924;5.328;2022-12-07T15:30:45;6.80;99.90
18541;DHT22;9400;50.924;5.328;2022-12-07T15:33:13;6.70;99.90
18541;DHT22;9400;50.924;5.328;2022-12-07T15:35:45;6.70;99.90
18541;DHT22;9400;50.924;5.328;2022-12-07T15:38:15;6.80;99.90
18541;DHT22;9400;50.924;5.328;2022-12-07T15:40:43;6.70;99.90
18541;DHT22;9400;50.924;5.328;2022-12-07T15:43:15;6.70;99.90
18541;DHT22;9400;50.924;5.328;2022-12-07T15:45:57;6.70;99.90
18541;DHT22;9400;50.924;5.328;2022-12-07T15:48:25;6.60;99.90
18541;DHT22;9400;50.924;5.328;2022-12-07T15:50:52;6.60;99.90
18541;DHT22;9400;50.924;5.328;2022-12-07T15:53:20;6.50;99.90
18541;DHT22;9400;50.924;5.328;2022-12-07T15:55:47;6.40;99.90
18541;DHT22;9400;50.924;5.328;2022-12-07T15:58:17;6.30;99.90
18541;DHT22;9400;50.924;5.328;2022-12-07T16:00:45;6.30;99.90
18541;DHT22;9400;50.924;5.328;2022-12-07T16:03:13;6.20;99.90
18541;DHT22;9400;50.924;5.328;2022-12-07T16:05:41;6.20;99.90
18541;DHT22;9400;50.924;5.328;2022-12-07T16:08:09;6.20;99.90
18541;DHT22;9400;50.924;5.328;2022-12-07T16:10:36;6.20;99.90
18541;DHT22;9400;50.924;5.328;2022-12-07T16:13:04;6.20;99.90
18541;DHT22;9400;50.924;5.328;2022-12-07T16:15:33;6.20;99.90
18541;DHT22;9400;50.924;5.328;2022-12-07T16:18:04;6.10;99.90
18541;DHT22;9400;50.924;5.328;2022-12-07T16:20:32;6.20;99.90
18541;DHT22;9400;50.924;5.328;2022-12-07T16:23:00;6.20;99.90
18541;DHT22;9400;50.924;5.328;2022-12-07T16:25:27;6.20;99.90
18541;DHT22;9400;50.924;5.328;2022-12-07T16:27:55;6.20;99.90
18541;DHT22;9400;50.924;5.328;2022-12-07T16:30:23;6.10;99.90
18541;DHT22;9400;50.924;5.328;2022-12-07T16:32:53;6.10;99.90
18541;DHT22;9400;50.924;5.328;2022-12-07T16:35:21;6.10;99.90
18541;DHT22;9400;50.924;5.328;2022-12-07T16:37:48;6.00;99.90
18541;DHT22;9400;50.924;5.328;2022-12-07T16:40:16;6.00;99.90
18541;DHT22;9400;50.924;5.328;2022-12-07T16:42:44;5.90;99.90
18541;DHT22;9400;50.924;5.328;2022-12-07T16:45:11;5.90;99.90
18541;DHT22;9400;50.924;5.328;2022-12-07T16:47:39;5.90;99.90
18541;DHT22;9400;50.924;5.328;2022-12-07T16:50:12;6.00;99.90
18541;DHT22;9400;50.924;5.328;2022-12-07T16:52:39;5.90;99.90
18541;DHT22;9400;50.924;5.328;2022-12-07T16:55:08;5.90;99.90